sensor_id;sensor_type;location;lat;lon;timestamp;P1;durP1;ratioP1;P2;durP2;ratioP2
59099;SDS011;44884;52.730;6.964;2022-10-31T00:00:26;7.03;;;5.85;;
59099;SDS011;44884;52.730;6.964;2022-10-31T00:02:52;7.75;;;6.10;;
59099;SDS011;44884;52.730;6.964;2022-10-31T00:05:18;7.70;;;6.75;;
59099;SDS011;44884;52.730;6.964;2022-10-31T00:07:44;6.70;;;6.00;;
59099;SDS011;44884;52.730;6.964;2022-10-31T00:10:10;6.53;;;5.63;;
59099;SDS011;44884;52.730;6.964;2022-10-31T00:12:36;8.07;;;5.22;;
59099;SDS011;44884;52.730;6.964;2022-10-31T00:15:02;6.55;;;5.47;;
59099;SDS011;44884;52.730;6.964;2022-10-31T00:17:28;7.07;;;6.20;;
59099;SDS011;44884;52.730;6.964;2022-10-31T00:19:54;6.00;;;5.40;;
59099;SDS011;44884;52.730;6.964;2022-10-31T00:22:20;6.10;;;5.45;;
59099;SDS011;44884;52.730;6.964;2022-10-31T00:24:46;6.82;;;5.40;;
59099;SDS011;44884;52.730;6.964;2022-10-31T00:27:12;10.98;;;6.28;;
59099;SDS011;44884;52.730;6.964;2022-10-31T00:29:38;6.53;;;5.43;;
59099;SDS011;44884;52.730;6.964;2022-10-31T00:32:04;6.97;;;5.95;;
59099;SDS011;44884;52.730;6.964;2022-10-31T00:34:30;7.18;;;5.63;;
59099;SDS011;44884;52.730;6.964;2022-10-31T00:36:56;7.13;;;5.70;;
59099;SDS011;44884;52.730;6.964;2022-10-31T00:39:22;7.07;;;6.03;;
59099;SDS011;44884;52.730;6.964;2022-10-31T00:41:48;9.60;;;6.88;;
59099;SDS011;44884;52.730;6.964;2022-10-31T00:44:14;7.25;;;5.95;;
59099;SDS011;44884;52.730;6.964;2022-10-31T00:46:40;7.45;;;5.47;;
59099;SDS011;44884;52.730;6.964;2022-10-31T00:49:06;6.38;;;5.72;;
59099;SDS011;44884;52.730;6.964;2022-10-31T00:51:32;5.53;;;4.90;;
59099;SDS011;44884;52.730;6.964;2022-10-31T00:53:58;5.78;;;5.18;;
59099;SDS011;44884;52.730;6.964;2022-10-31T00:56:24;6.85;;;5.75;;
59099;SDS011;44884;52.730;6.964;2022-10-31T00:58:50;8.63;;;6.57;;
59099;SDS011;44884;52.730;6.964;2022-10-31T01:01:16;7.82;;;6.00;;
59099;SDS011;44884;52.730;6.964;2022-10-31T01:03:42;7.18;;;6.05;;
59099;SDS011;44884;52.730;6.964;2022-10-31T01:06:09;8.13;;;5.72;;
59099;SDS011;44884;52.730;6.964;2022-10-31T01:08:36;7.78;;;5.43;;
59099;SDS011;44884;52.730;6.964;2022-10-31T01:11:04;6.47;;;5.35;;
59099;SDS011;44884;52.730;6.964;2022-10-31T01:13:30;6.97;;;5.10;;
59099;SDS011;44884;52.730;6.964;2022-10-31T01:15:57;7.63;;;4.82;;
59099;SDS011;44884;52.730;6.964;2022-10-31T01:18:23;7.63;;;5.97;;
59099;SDS011;44884;52.730;6.964;2022-10-31T01:21:08;6.68;;;5.53;;
59099;SDS011;44884;52.730;6.964;2022-10-31T01:23:35;5.13;;;4.63;;
59099;SDS011;44884;52.730;6.964;2022-10-31T01:28:27;6.50;;;5.80;;
59099;SDS011;44884;52.730;6.964;2022-10-31T01:30:53;6.13;;;5.63;;
59099;SDS011;44884;52.730;6.964;2022-10-31T01:33:19;6.00;;;5.40;;
59099;SDS011;44884;52.730;6.964;2022-10-31T01:35:45;5.93;;;5.07;;
59099;SDS011;44884;52.730;6.964;2022-10-31T01:38:11;7.47;;;6.00;;
59099;SDS011;44884;52.730;6.964;2022-10-31T01:40:37;7.55;;;5.47;;
59099;SDS011;44884;52.730;6.964;2022-10-31T01:43:03;5.93;;;5.32;;
59099;SDS011;44884;52.730;6.964;2022-10-31T01:45:29;9.07;;;5.15;;
59099;SDS011;44884;52.730;6.964;2022-10-31T01:47:55;8.75;;;5.53;;
59099;SDS011;44884;52.730;6.964;2022-10-31T01:50:31;7.07;;;5.28;;
59099;SDS011;44884;52.730;6.964;2022-10-31T01:52:59;6.25;;;5.68;;
59099;SDS011;44884;52.730;6.964;2022-10-31T01:55:35;6.30;;;5.47;;
59099;SDS011;44884;52.730;6.964;2022-10-31T01:58:07;6.13;;;5.38;;
59099;SDS011;44884;52.730;6.964;2022-10-31T02:00:35;8.82;;;5.15;;
59099;SDS011;44884;52.730;6.964;2022-10-31T02:03:01;6.20;;;5.60;;
59099;SDS011;44884;52.730;6.964;2022-10-31T02:05:28;6.22;;;4.80;;
59099;SDS011;44884;52.730;6.964;2022-10-31T02:07:59;9.30;;;6.00;;
59099;SDS011;44884;52.730;6.964;2022-10-31T02:10:27;7.90;;;5.70;;
59099;SDS011;44884;52.730;6.964;2022-10-31T02:12:54;7.45;;;5.25;;
59099;SDS011;44884;52.730;6.964;2022-10-31T02:15:22;5.93;;;5.32;;
59099;SDS011;44884;52.730;6.964;2022-10-31T02:17:48;7.43;;;5.25;;
59099;SDS011;44884;52.730;6.964;2022-10-31T02:35:55;5.85;;;5.10;;
59099;SDS011;44884;52.730;6.964;2022-10-31T02:38:41;7.95;;;5.55;;
59099;SDS011;44884;52.730;6.964;2022-10-31T02:41:18;6.60;;;4.78;;
59099;SDS011;44884;52.730;6.964;2022-10-31T02:46:17;5.97;;;5.22;;
59099;SDS011;44884;52.730;6.964;2022-10-31T02:48:45;5.03;;;4.50;;
59099;SDS011;44884;52.730;6.964;2022-10-31T02:51:12;6.57;;;4.63;;
59099;SDS011;44884;52.730;6.964;2022-10-31T02:53:39;6.03;;;4.50;;
59099;SDS011;44884;52.730;6.964;2022-10-31T02:56:11;5.30;;;4.68;;
59099;SDS011;44884;52.730;6.964;2022-10-31T03:03:33;5.25;;;4.75;;
59099;SDS011;44884;52.730;6.964;2022-10-31T03:06:09;7.68;;;5.15;;
59099;SDS011;44884;52.730;6.964;2022-10-31T03:08:46;5.72;;;4.63;;
59099;SDS011;44884;52.730;6.964;2022-10-31T03:11:15;6.35;;;5.07;;
59099;SDS011;44884;52.730;6.964;2022-10-31T03:17:14;7.88;;;4.30;;
59099;SDS011;44884;52.730;6.964;2022-10-31T03:19:09;6.63;;;4.13;;
59099;SDS011;44884;52.730;6.964;2022-10-31T03:21:39;5.93;;;5.32;;
59099;SDS011;44884;52.730;6.964;2022-10-31T03:24:07;5.25;;;4.30;;
59099;SDS011;44884;52.730;6.964;2022-10-31T03:26:38;5.20;;;4.70;;
59099;SDS011;44884;52.730;6.964;2022-10-31T03:29:06;5.95;;;5.10;;
59099;SDS011;44884;52.730;6.964;2022-10-31T03:31:37;7.13;;;5.45;;
59099;SDS011;44884;52.730;6.964;2022-10-31T03:34:04;6.25;;;4.55;;
59099;SDS011;44884;52.730;6.964;2022-10-31T03:36:32;7.32;;;5.05;;
59099;SDS011;44884;52.730;6.964;2022-10-31T03:38:59;7.03;;;4.97;;
59099;SDS011;44884;52.730;6.964;2022-10-31T03:41:28;5.78;;;4.40;;
59099;SDS011;44884;52.730;6.964;2022-10-31T03:43:56;7.72;;;4.97;;
59099;SDS011;44884;52.730;6.964;2022-10-31T03:46:23;7.25;;;5.05;;
59099;SDS011;44884;52.730;6.964;2022-10-31T03:48:49;6.43;;;4.78;;
59099;SDS011;44884;52.730;6.964;2022-10-31T03:51:26;5.10;;;4.50;;
59099;SDS011;44884;52.730;6.964;2022-10-31T03:53:57;5.75;;;5.00;;
59099;SDS011;44884;52.730;6.964;2022-10-31T03:56:30;8.32;;;5.95;;
59099;SDS011;44884;52.730;6.964;2022-10-31T04:01:23;6.78;;;5.10;;
59099;SDS011;44884;52.730;6.964;2022-10-31T04:03:51;5.05;;;4.53;;
59099;SDS011;44884;52.730;6.964;2022-10-31T04:06:18;7.60;;;4.60;;
59099;SDS011;44884;52.730;6.964;2022-10-31T04:08:46;6.07;;;4.70;;
59099;SDS011;44884;52.730;6.964;2022-10-31T04:11:13;6.38;;;4.97;;
59099;SDS011;44884;52.730;6.964;2022-10-31T04:13:42;5.60;;;5.05;;
59099;SDS011;44884;52.730;6.964;2022-10-31T04:16:10;4.65;;;4.10;;
59099;SDS011;44884;52.730;6.964;2022-10-31T04:18:36;7.95;;;4.55;;
59099;SDS011;44884;52.730;6.964;2022-10-31T04:21:06;5.93;;;5.32;;
59099;SDS011;44884;52.730;6.964;2022-10-31T04:23:33;5.93;;;5.30;;
59099;SDS011;44884;52.730;6.964;2022-10-31T04:25:59;8.15;;;5.20;;
59099;SDS011;44884;52.730;6.964;2022-10-31T04:28:25;7.18;;;4.72;;
59099;SDS011;44884;52.730;6.964;2022-10-31T04:30:51;5.00;;;4.50;;
59099;SDS011;44884;52.730;6.964;2022-10-31T04:33:18;5.57;;;4.75;;
59099;SDS011;44884;52.730;6.964;2022-10-31T04:35:44;6.00;;;4.00;;
59099;SDS011;44884;52.730;6.964;2022-10-31T04:38:10;6.30;;;4.78;;
59099;SDS011;44884;52.730;6.964;2022-10-31T04:40:36;6.80;;;5.00;;
59099;SDS011;44884;52.730;6.964;2022-10-31T04:43:02;5.38;;;4.55;;
59099;SDS011;44884;52.730;6.964;2022-10-31T04:45:28;5.28;;;4.78;;
59099;SDS011;44884;52.730;6.964;2022-10-31T04:47:54;5.32;;;4.63;;
59099;SDS011;44884;52.730;6.964;2022-10-31T04:50:20;5.57;;;4.97;;
59099;SDS011;44884;52.730;6.964;2022-10-31T04:52:46;5.32;;;4.80;;
59099;SDS011;44884;52.730;6.964;2022-10-31T04:55:12;4.82;;;4.40;;
59099;SDS011;44884;52.730;6.964;2022-10-31T04:57:42;5.28;;;4.78;;
59099;SDS011;44884;52.730;6.964;2022-10-31T05:00:08;5.43;;;4.80;;
59099;SDS011;44884;52.730;6.964;2022-10-31T05:02:41;4.75;;;4.13;;
59099;SDS011;44884;52.730;6.964;2022-10-31T05:05:07;7.55;;;5.38;;
59099;SDS011;44884;52.730;6.964;2022-10-31T05:07:37;5.40;;;4.80;;
59099;SDS011;44884;52.730;6.964;2022-10-31T05:10:03;6.07;;;4.65;;
59099;SDS011;44884;52.730;6.964;2022-10-31T05:12:29;5.35;;;4.72;;
59099;SDS011;44884;52.730;6.964;2022-10-31T05:14:55;4.93;;;4.22;;
59099;SDS011;44884;52.730;6.964;2022-10-31T05:17:21;5.03;;;4.00;;
59099;SDS011;44884;52.730;6.964;2022-10-31T05:19:48;5.03;;;3.65;;
59099;SDS011;44884;52.730;6.964;2022-10-31T05:22:13;5.60;;;4.70;;
59099;SDS011;44884;52.730;6.964;2022-10-31T05:24:39;6.10;;;4.03;;
59099;SDS011;44884;52.730;6.964;2022-10-31T05:27:05;6.22;;;4.53;;
59099;SDS011;44884;52.730;6.964;2022-10-31T05:29:31;4.80;;;4.18;;
59099;SDS011;44884;52.730;6.964;2022-10-31T05:31:58;5.47;;;4.65;;
59099;SDS011;44884;52.730;6.964;2022-10-31T05:34:24;4.93;;;4.40;;
59099;SDS011;44884;52.730;6.964;2022-10-31T05:36:50;4.20;;;3.75;;
59099;SDS011;44884;52.730;6.964;2022-10-31T05:39:16;4.93;;;4.53;;
59099;SDS011;44884;52.730;6.964;2022-10-31T05:41:42;5.70;;;4.63;;
59099;SDS011;44884;52.730;6.964;2022-10-31T05:44:08;4.68;;;4.28;;
59099;SDS011;44884;52.730;6.964;2022-10-31T05:46:34;4.70;;;4.30;;
59099;SDS011;44884;52.730;6.964;2022-10-31T05:49:00;6.30;;;4.63;;
59099;SDS011;44884;52.730;6.964;2022-10-31T05:51:26;5.03;;;4.47;;
59099;SDS011;44884;52.730;6.964;2022-10-31T05:53:52;4.40;;;4.00;;
59099;SDS011;44884;52.730;6.964;2022-10-31T05:56:18;4.53;;;4.13;;
59099;SDS011;44884;52.730;6.964;2022-10-31T05:58:44;4.38;;;3.97;;
59099;SDS011;44884;52.730;6.964;2022-10-31T06:01:10;4.53;;;4.10;;
59099;SDS011;44884;52.730;6.964;2022-10-31T06:03:36;4.45;;;4.05;;
59099;SDS011;44884;52.730;6.964;2022-10-31T06:06:02;4.75;;;4.32;;
59099;SDS011;44884;52.730;6.964;2022-10-31T06:08:28;4.35;;;3.95;;
59099;SDS011;44884;52.730;6.964;2022-10-31T06:10:54;6.85;;;4.55;;
59099;SDS011;44884;52.730;6.964;2022-10-31T06:13:21;4.78;;;4.32;;
59099;SDS011;44884;52.730;6.964;2022-10-31T06:15:47;4.38;;;3.97;;
59099;SDS011;44884;52.730;6.964;2022-10-31T06:18:16;4.35;;;3.95;;
59099;SDS011;44884;52.730;6.964;2022-10-31T06:20:42;8.57;;;4.72;;
59099;SDS011;44884;52.730;6.964;2022-10-31T06:23:07;5.72;;;4.32;;
59099;SDS011;44884;52.730;6.964;2022-10-31T06:25:34;5.03;;;4.35;;
59099;SDS011;44884;52.730;6.964;2022-10-31T06:28:00;4.45;;;4.05;;
59099;SDS011;44884;52.730;6.964;2022-10-31T06:30:26;5.38;;;4.28;;
59099;SDS011;44884;52.730;6.964;2022-10-31T06:32:52;4.68;;;4.25;;
59099;SDS011;44884;52.730;6.964;2022-10-31T06:35:18;4.72;;;4.15;;
59099;SDS011;44884;52.730;6.964;2022-10-31T06:37:51;6.07;;;4.10;;
59099;SDS011;44884;52.730;6.964;2022-10-31T06:40:17;6.28;;;4.07;;
59099;SDS011;44884;52.730;6.964;2022-10-31T06:42:43;4.55;;;4.15;;
59099;SDS011;44884;52.730;6.964;2022-10-31T06:45:09;5.25;;;4.05;;
59099;SDS011;44884;52.730;6.964;2022-10-31T06:47:35;4.68;;;4.13;;
59099;SDS011;44884;52.730;6.964;2022-10-31T06:50:01;4.18;;;3.42;;
59099;SDS011;44884;52.730;6.964;2022-10-31T06:52:27;5.00;;;4.45;;
59099;SDS011;44884;52.730;6.964;2022-10-31T06:54:53;6.93;;;4.60;;
59099;SDS011;44884;52.730;6.964;2022-10-31T06:57:19;4.95;;;4.30;;
59099;SDS011;44884;52.730;6.964;2022-10-31T06:59:45;4.60;;;4.20;;
59099;SDS011;44884;52.730;6.964;2022-10-31T07:02:11;4.65;;;4.18;;
59099;SDS011;44884;52.730;6.964;2022-10-31T07:04:37;5.22;;;4.20;;
59099;SDS011;44884;52.730;6.964;2022-10-31T07:07:03;4.47;;;4.05;;
59099;SDS011;44884;52.730;6.964;2022-10-31T07:09:29;3.78;;;3.47;;
59099;SDS011;44884;52.730;6.964;2022-10-31T07:11:55;3.85;;;3.55;;
59099;SDS011;44884;52.730;6.964;2022-10-31T07:14:21;4.30;;;3.83;;
59099;SDS011;44884;52.730;6.964;2022-10-31T07:16:50;4.72;;;3.88;;
59099;SDS011;44884;52.730;6.964;2022-10-31T07:19:16;4.30;;;3.90;;
59099;SDS011;44884;52.730;6.964;2022-10-31T07:21:43;3.80;;;3.40;;
59099;SDS011;44884;52.730;6.964;2022-10-31T07:24:09;4.00;;;3.60;;
59099;SDS011;44884;52.730;6.964;2022-10-31T07:26:35;5.00;;;4.20;;
59099;SDS011;44884;52.730;6.964;2022-10-31T07:29:01;6.25;;;4.35;;
59099;SDS011;44884;52.730;6.964;2022-10-31T07:31:27;5.65;;;4.50;;
59099;SDS011;44884;52.730;6.964;2022-10-31T07:33:53;3.92;;;3.55;;
59099;SDS011;44884;52.730;6.964;2022-10-31T07:36:19;4.18;;;3.50;;
59099;SDS011;44884;52.730;6.964;2022-10-31T07:38:45;5.18;;;4.00;;
59099;SDS011;44884;52.730;6.964;2022-10-31T07:41:11;4.43;;;3.92;;
59099;SDS011;44884;52.730;6.964;2022-10-31T07:43:37;4.53;;;3.78;;
59099;SDS011;44884;52.730;6.964;2022-10-31T07:46:03;6.03;;;3.85;;
59099;SDS011;44884;52.730;6.964;2022-10-31T07:48:29;7.38;;;4.07;;
59099;SDS011;44884;52.730;6.964;2022-10-31T07:50:55;4.13;;;3.72;;
59099;SDS011;44884;52.730;6.964;2022-10-31T07:53:21;5.72;;;4.22;;
59099;SDS011;44884;52.730;6.964;2022-10-31T07:55:47;4.68;;;4.18;;
59099;SDS011;44884;52.730;6.964;2022-10-31T07:58:15;4.25;;;3.55;;
59099;SDS011;44884;52.730;6.964;2022-10-31T08:00:42;4.47;;;4.07;;
59099;SDS011;44884;52.730;6.964;2022-10-31T08:03:12;4.13;;;3.78;;
59099;SDS011;44884;52.730;6.964;2022-10-31T08:05:38;4.15;;;3.75;;
59099;SDS011;44884;52.730;6.964;2022-10-31T08:08:06;4.18;;;3.78;;
59099;SDS011;44884;52.730;6.964;2022-10-31T08:10:33;5.35;;;3.95;;
59099;SDS011;44884;52.730;6.964;2022-10-31T08:13:00;4.65;;;4.25;;
59099;SDS011;44884;52.730;6.964;2022-10-31T08:15:26;4.20;;;3.70;;
59099;SDS011;44884;52.730;6.964;2022-10-31T08:17:52;4.22;;;3.83;;
59099;SDS011;44884;52.730;6.964;2022-10-31T08:20:18;4.10;;;3.72;;
59099;SDS011;44884;52.730;6.964;2022-10-31T08:22:58;5.55;;;4.47;;
59099;SDS011;44884;52.730;6.964;2022-10-31T08:25:24;4.60;;;4.18;;
59099;SDS011;44884;52.730;6.964;2022-10-31T08:27:51;4.20;;;3.80;;
59099;SDS011;44884;52.730;6.964;2022-10-31T08:30:17;3.88;;;3.55;;
59099;SDS011;44884;52.730;6.964;2022-10-31T08:32:43;3.88;;;3.50;;
59099;SDS011;44884;52.730;6.964;2022-10-31T08:35:09;5.43;;;4.28;;
59099;SDS011;44884;52.730;6.964;2022-10-31T08:37:35;4.82;;;4.07;;
59099;SDS011;44884;52.730;6.964;2022-10-31T08:40:01;5.57;;;3.55;;
59099;SDS011;44884;52.730;6.964;2022-10-31T08:42:27;4.22;;;3.70;;
59099;SDS011;44884;52.730;6.964;2022-10-31T08:44:53;4.35;;;3.95;;
59099;SDS011;44884;52.730;6.964;2022-10-31T08:47:19;4.95;;;4.13;;
59099;SDS011;44884;52.730;6.964;2022-10-31T08:49:45;4.93;;;4.43;;
59099;SDS011;44884;52.730;6.964;2022-10-31T08:52:11;4.63;;;4.18;;
59099;SDS011;44884;52.730;6.964;2022-10-31T08:54:39;4.70;;;3.70;;
59099;SDS011;44884;52.730;6.964;2022-10-31T08:57:05;5.30;;;3.83;;
59099;SDS011;44884;52.730;6.964;2022-10-31T08:59:31;4.13;;;3.72;;
59099;SDS011;44884;52.730;6.964;2022-10-31T09:01:57;4.05;;;3.65;;
59099;SDS011;44884;52.730;6.964;2022-10-31T09:04:23;5.10;;;4.43;;
59099;SDS011;44884;52.730;6.964;2022-10-31T09:06:49;4.10;;;3.70;;
59099;SDS011;44884;52.730;6.964;2022-10-31T09:09:15;4.25;;;3.67;;
59099;SDS011;44884;52.730;6.964;2022-10-31T09:11:41;4.05;;;3.65;;
59099;SDS011;44884;52.730;6.964;2022-10-31T09:14:07;7.13;;;5.55;;
59099;SDS011;44884;52.730;6.964;2022-10-31T09:16:33;13.27;;;10.90;;
59099;SDS011;44884;52.730;6.964;2022-10-31T09:18:59;17.13;;;10.90;;
59099;SDS011;44884;52.730;6.964;2022-10-31T09:21:25;16.83;;;13.43;;
59099;SDS011;44884;52.730;6.964;2022-10-31T09:23:51;18.98;;;13.02;;
59099;SDS011;44884;52.730;6.964;2022-10-31T09:26:18;20.58;;;14.00;;
59099;SDS011;44884;52.730;6.964;2022-10-31T09:28:45;18.15;;;14.48;;
59099;SDS011;44884;52.730;6.964;2022-10-31T09:31:11;22.77;;;16.33;;
59099;SDS011;44884;52.730;6.964;2022-10-31T09:33:37;20.17;;;15.02;;
59099;SDS011;44884;52.730;6.964;2022-10-31T09:36:04;18.52;;;13.93;;
59099;SDS011;44884;52.730;6.964;2022-10-31T09:38:30;23.33;;;15.30;;
59099;SDS011;44884;52.730;6.964;2022-10-31T09:43:29;20.80;;;14.60;;
59099;SDS011;44884;52.730;6.964;2022-10-31T09:56:13;19.75;;;15.70;;
59099;SDS011;44884;52.730;6.964;2022-10-31T09:58:41;28.95;;;15.55;;
59099;SDS011;44884;52.730;6.964;2022-10-31T10:01:09;24.55;;;16.30;;
59099;SDS011;44884;52.730;6.964;2022-10-31T10:03:42;26.05;;;16.27;;
59099;SDS011;44884;52.730;6.964;2022-10-31T10:06:11;26.90;;;15.02;;
59099;SDS011;44884;52.730;6.964;2022-10-31T10:08:38;27.13;;;15.23;;
59099;SDS011;44884;52.730;6.964;2022-10-31T10:26:25;26.92;;;15.52;;
59099;SDS011;44884;52.730;6.964;2022-10-31T10:28:57;26.75;;;16.95;;
59099;SDS011;44884;52.730;6.964;2022-10-31T10:31:31;24.88;;;15.23;;
59099;SDS011;44884;52.730;6.964;2022-10-31T10:34:02;23.13;;;15.60;;
59099;SDS011;44884;52.730;6.964;2022-10-31T10:36:33;19.55;;;13.77;;
59099;SDS011;44884;52.730;6.964;2022-10-31T10:39:08;19.75;;;13.75;;
59099;SDS011;44884;52.730;6.964;2022-10-31T10:41:37;20.40;;;14.30;;
59099;SDS011;44884;52.730;6.964;2022-10-31T10:44:05;20.55;;;14.15;;
59099;SDS011;44884;52.730;6.964;2022-10-31T10:46:40;23.33;;;15.10;;
59099;SDS011;44884;52.730;6.964;2022-10-31T10:49:31;23.83;;;14.20;;
59099;SDS011;44884;52.730;6.964;2022-10-31T10:52:07;18.95;;;13.98;;
59099;SDS011;44884;52.730;6.964;2022-10-31T10:54:49;19.52;;;12.80;;
59099;SDS011;44884;52.730;6.964;2022-10-31T10:59:54;18.00;;;13.40;;
59099;SDS011;44884;52.730;6.964;2022-10-31T11:02:25;20.63;;;12.98;;
59099;SDS011;44884;52.730;6.964;2022-10-31T11:04:55;20.20;;;13.48;;
59099;SDS011;44884;52.730;6.964;2022-10-31T11:07:22;21.17;;;13.15;;
59099;SDS011;44884;52.730;6.964;2022-10-31T11:09:48;19.00;;;13.85;;
59099;SDS011;44884;52.730;6.964;2022-10-31T11:12:25;15.63;;;12.32;;
59099;SDS011;44884;52.730;6.964;2022-10-31T11:14:55;18.13;;;14.50;;
59099;SDS011;44884;52.730;6.964;2022-10-31T11:17:37;23.33;;;14.13;;
59099;SDS011;44884;52.730;6.964;2022-10-31T11:20:06;17.90;;;12.52;;
59099;SDS011;44884;52.730;6.964;2022-10-31T11:22:43;19.10;;;11.77;;
59099;SDS011;44884;52.730;6.964;2022-10-31T11:28:01;23.02;;;12.82;;
59099;SDS011;44884;52.730;6.964;2022-10-31T11:30:27;16.05;;;12.00;;
59099;SDS011;44884;52.730;6.964;2022-10-31T11:32:53;16.65;;;11.77;;
59099;SDS011;44884;52.730;6.964;2022-10-31T11:35:20;13.77;;;10.68;;
59099;SDS011;44884;52.730;6.964;2022-10-31T11:37:48;18.17;;;10.75;;
59099;SDS011;44884;52.730;6.964;2022-10-31T11:40:16;18.02;;;11.23;;
59099;SDS011;44884;52.730;6.964;2022-10-31T11:42:43;16.27;;;10.75;;
59099;SDS011;44884;52.730;6.964;2022-10-31T11:47:40;18.48;;;11.50;;
59099;SDS011;44884;52.730;6.964;2022-10-31T11:50:10;14.20;;;11.20;;
59099;SDS011;44884;52.730;6.964;2022-10-31T11:52:37;21.45;;;12.68;;
59099;SDS011;44884;52.730;6.964;2022-10-31T11:57:47;19.73;;;11.25;;
59099;SDS011;44884;52.730;6.964;2022-10-31T12:00:21;15.75;;;9.85;;
59099;SDS011;44884;52.730;6.964;2022-10-31T12:02:47;13.52;;;10.32;;
59099;SDS011;44884;52.730;6.964;2022-10-31T12:05:23;14.75;;;9.38;;
59099;SDS011;44884;52.730;6.964;2022-10-31T12:07:50;17.70;;;11.07;;
59099;SDS011;44884;52.730;6.964;2022-10-31T12:10:16;14.80;;;10.18;;
59099;SDS011;44884;52.730;6.964;2022-10-31T12:12:49;17.85;;;9.38;;
59099;SDS011;44884;52.730;6.964;2022-10-31T12:23:10;13.60;;;9.50;;
59099;SDS011;44884;52.730;6.964;2022-10-31T12:33:37;12.85;;;9.20;;
59099;SDS011;44884;52.730;6.964;2022-10-31T12:38:56;15.70;;;7.63;;
59099;SDS011;44884;52.730;6.964;2022-10-31T12:41:30;11.90;;;8.00;;
59099;SDS011;44884;52.730;6.964;2022-10-31T12:44:06;13.32;;;8.27;;
59099;SDS011;44884;52.730;6.964;2022-10-31T12:46:47;12.27;;;8.52;;
59099;SDS011;44884;52.730;6.964;2022-10-31T12:52:20;10.00;;;7.20;;
59099;SDS011;44884;52.730;6.964;2022-10-31T12:57:22;16.17;;;7.80;;
59099;SDS011;44884;52.730;6.964;2022-10-31T12:59:51;10.75;;;7.20;;
59099;SDS011;44884;52.730;6.964;2022-10-31T13:02:28;11.85;;;7.90;;
59099;SDS011;44884;52.730;6.964;2022-10-31T13:05:58;11.30;;;7.93;;
59099;SDS011;44884;52.730;6.964;2022-10-31T13:07:57;8.70;;;6.57;;
59099;SDS011;44884;52.730;6.964;2022-10-31T13:10:26;10.93;;;7.13;;
59099;SDS011;44884;52.730;6.964;2022-10-31T13:12:55;15.55;;;7.75;;
59099;SDS011;44884;52.730;6.964;2022-10-31T13:15:23;8.40;;;6.38;;
59099;SDS011;44884;52.730;6.964;2022-10-31T13:17:53;11.18;;;6.45;;
59099;SDS011;44884;52.730;6.964;2022-10-31T13:23:10;8.70;;;6.85;;
59099;SDS011;44884;52.730;6.964;2022-10-31T13:25:40;12.90;;;7.57;;
59099;SDS011;44884;52.730;6.964;2022-10-31T13:28:12;12.82;;;6.97;;
59099;SDS011;44884;52.730;6.964;2022-10-31T13:30:41;9.60;;;7.10;;
59099;SDS011;44884;52.730;6.964;2022-10-31T13:33:15;9.80;;;6.88;;
59099;SDS011;44884;52.730;6.964;2022-10-31T13:38:27;10.57;;;7.25;;
59099;SDS011;44884;52.730;6.964;2022-10-31T13:41:48;12.00;;;8.20;;
59099;SDS011;44884;52.730;6.964;2022-10-31T13:48:52;12.90;;;7.68;;
59099;SDS011;44884;52.730;6.964;2022-10-31T13:51:25;10.43;;;6.85;;
59099;SDS011;44884;52.730;6.964;2022-10-31T13:53:57;9.63;;;7.80;;
59099;SDS011;44884;52.730;6.964;2022-10-31T13:56:27;10.93;;;7.30;;
59099;SDS011;44884;52.730;6.964;2022-10-31T14:01:23;11.18;;;6.75;;
59099;SDS011;44884;52.730;6.964;2022-10-31T14:03:56;14.25;;;6.72;;
59099;SDS011;44884;52.730;6.964;2022-10-31T14:06:33;13.70;;;7.15;;
59099;SDS011;44884;52.730;6.964;2022-10-31T14:09:00;8.48;;;6.22;;
59099;SDS011;44884;52.730;6.964;2022-10-31T14:11:26;10.55;;;7.13;;
59099;SDS011;44884;52.730;6.964;2022-10-31T14:13:54;10.65;;;6.35;;
59099;SDS011;44884;52.730;6.964;2022-10-31T14:16:28;13.00;;;6.13;;
59099;SDS011;44884;52.730;6.964;2022-10-31T14:23:53;8.57;;;6.68;;
59099;SDS011;44884;52.730;6.964;2022-10-31T14:28:51;10.75;;;6.97;;
59099;SDS011;44884;52.730;6.964;2022-10-31T14:34:52;10.70;;;7.18;;
59099;SDS011;44884;52.730;6.964;2022-10-31T14:39:37;12.85;;;6.70;;
59099;SDS011;44884;52.730;6.964;2022-10-31T14:49:59;12.48;;;6.20;;
59099;SDS011;44884;52.730;6.964;2022-10-31T14:52:29;7.85;;;6.18;;
59099;SDS011;44884;52.730;6.964;2022-10-31T14:54:56;10.05;;;6.18;;
59099;SDS011;44884;52.730;6.964;2022-10-31T14:58:06;8.07;;;6.63;;
59099;SDS011;44884;52.730;6.964;2022-10-31T15:00:17;15.05;;;6.43;;
59099;SDS011;44884;52.730;6.964;2022-10-31T15:05:15;7.55;;;5.93;;
59099;SDS011;44884;52.730;6.964;2022-10-31T15:07:48;7.35;;;5.20;;
59099;SDS011;44884;52.730;6.964;2022-10-31T15:10:23;8.00;;;5.90;;
59099;SDS011;44884;52.730;6.964;2022-10-31T15:12:50;8.15;;;5.13;;
59099;SDS011;44884;52.730;6.964;2022-10-31T15:15:21;9.52;;;5.28;;
59099;SDS011;44884;52.730;6.964;2022-10-31T15:18:14;9.75;;;5.10;;
59099;SDS011;44884;52.730;6.964;2022-10-31T15:20:36;6.03;;;4.20;;
59099;SDS011;44884;52.730;6.964;2022-10-31T15:23:03;6.72;;;4.75;;
59099;SDS011;44884;52.730;6.964;2022-10-31T15:25:31;6.10;;;4.68;;
59099;SDS011;44884;52.730;6.964;2022-10-31T15:27:58;7.03;;;4.78;;
59099;SDS011;44884;52.730;6.964;2022-10-31T15:30:25;6.82;;;4.35;;
59099;SDS011;44884;52.730;6.964;2022-10-31T15:32:51;9.13;;;4.55;;
59099;SDS011;44884;52.730;6.964;2022-10-31T15:35:28;7.32;;;4.35;;
59099;SDS011;44884;52.730;6.964;2022-10-31T15:37:55;6.53;;;4.65;;
59099;SDS011;44884;52.730;6.964;2022-10-31T15:40:23;5.35;;;4.20;;
59099;SDS011;44884;52.730;6.964;2022-10-31T15:45:25;7.38;;;4.63;;
59099;SDS011;44884;52.730;6.964;2022-10-31T15:52:50;5.20;;;3.72;;
59099;SDS011;44884;52.730;6.964;2022-10-31T15:55:26;6.45;;;3.75;;
59099;SDS011;44884;52.730;6.964;2022-10-31T15:58:01;6.75;;;3.10;;
59099;SDS011;44884;52.730;6.964;2022-10-31T16:00:34;7.93;;;4.28;;
59099;SDS011;44884;52.730;6.964;2022-10-31T16:05:34;4.90;;;3.60;;
59099;SDS011;44884;52.730;6.964;2022-10-31T16:08:00;4.25;;;3.70;;
59099;SDS011;44884;52.730;6.964;2022-10-31T16:10:26;3.97;;;3.60;;
59099;SDS011;44884;52.730;6.964;2022-10-31T16:12:52;4.97;;;3.33;;
59099;SDS011;44884;52.730;6.964;2022-10-31T16:15:19;5.15;;;3.40;;
59099;SDS011;44884;52.730;6.964;2022-10-31T16:17:46;8.88;;;4.15;;
59099;SDS011;44884;52.730;6.964;2022-10-31T16:20:23;8.00;;;4.50;;
59099;SDS011;44884;52.730;6.964;2022-10-31T16:22:50;7.03;;;3.83;;
59099;SDS011;44884;52.730;6.964;2022-10-31T16:25:20;4.88;;;3.92;;
59099;SDS011;44884;52.730;6.964;2022-10-31T16:27:50;9.73;;;3.67;;
59099;SDS011;44884;52.730;6.964;2022-10-31T16:30:27;6.10;;;3.42;;
59099;SDS011;44884;52.730;6.964;2022-10-31T16:32:55;4.32;;;3.47;;
59099;SDS011;44884;52.730;6.964;2022-10-31T16:35:35;4.68;;;3.47;;
59099;SDS011;44884;52.730;6.964;2022-10-31T16:38:02;4.45;;;3.50;;
59099;SDS011;44884;52.730;6.964;2022-10-31T16:40:29;5.25;;;3.55;;
59099;SDS011;44884;52.730;6.964;2022-10-31T16:42:58;6.72;;;3.90;;
59099;SDS011;44884;52.730;6.964;2022-10-31T16:45:29;4.22;;;3.83;;
59099;SDS011;44884;52.730;6.964;2022-10-31T16:48:01;5.80;;;3.30;;
59099;SDS011;44884;52.730;6.964;2022-10-31T16:50:28;5.10;;;4.10;;
59099;SDS011;44884;52.730;6.964;2022-10-31T16:52:54;3.95;;;3.55;;
59099;SDS011;44884;52.730;6.964;2022-10-31T16:55:20;8.65;;;3.92;;
59099;SDS011;44884;52.730;6.964;2022-10-31T16:57:52;4.22;;;3.72;;
59099;SDS011;44884;52.730;6.964;2022-10-31T17:02:45;6.53;;;4.07;;
59099;SDS011;44884;52.730;6.964;2022-10-31T17:05:13;7.25;;;4.75;;
59099;SDS011;44884;52.730;6.964;2022-10-31T17:07:39;4.68;;;3.38;;
59099;SDS011;44884;52.730;6.964;2022-10-31T17:10:06;8.48;;;3.83;;
59099;SDS011;44884;52.730;6.964;2022-10-31T17:12:32;6.13;;;4.43;;